Time;durP1;ratioP1;P1;durP2;ratioP2;P2;SDS_P1;SDS_P2;PMS_P1;PMS_P2;Temp;Humidity;BMP_temperature;BMP_pressure;BME280_temperature;BME280_humidity;BME280_pressure;Samples;Min_cycle;Max_cycle;Signal;HPM_P1;HPM_P2
2020/12/16 00:02:15;;;;;;;19.13;10.85;;;;;;;;;;5032247;28;20056;-75
2020/12/16 00:04:40;;;;;;;17.27;10.57;;;;;;;;;;5029892;28;20075;-76
2020/12/16 00:07:05;;;;;;;19.60;11.33;;;;;;;;;;5031577;28;20473;-74
2020/12/16 00:09:30;;;;;;;22.50;12.63;;;;;;;;;;5031533;28;20790;-76
2020/12/16 00:11:55;;;;;;;21.50;11.67;;;;;;;;;;5031529;28;20033;-73
2020/12/16 00:14:20;;;;;;;19.50;11.57;;;;;;;;;;5031802;28;20283;-75
2020/12/16 00:16:45;;;;;;;18.77;10.03;;;;;;;;;;5031835;28;20359;-74
2020/12/16 00:19:11;;;;;;;15.83;10.60;;;;;;;;;;5029892;28;20272;-76
2020/12/16 00:21:36;;;;;;;19.15;11.07;;;;;;;;;;5029332;28;20323;-74
2020/12/16 00:24:01;;;;;;;25.43;11.77;;;;;;;;;;5031755;28;20123;-76
2020/12/16 00:26:26;;;;;;;20.40;11.68;;;;;;;;;;5031094;28;20264;-76
2020/12/16 00:28:51;;;;;;;19.77;10.40;;;;;;;;;;5030763;28;20025;-76
2020/12/16 00:31:17;;;;;;;18.23;10.23;;;;;;;;;;5031239;28;20017;-74
2020/12/16 00:33:42;;;;;;;17.85;10.40;;;;;;;;;;5031381;28;20029;-75
2020/12/16 00:36:07;;;;;;;16.73;10.03;;;;;;;;;;5031072;28;20079;-74
2020/12/16 00:38:33;;;;;;;17.23;10.68;;;;;;;;;;5030356;28;20264;-76
2020/12/16 00:40:58;;;;;;;20.45;9.88;;;;;;;;;;5029754;28;20029;-76
2020/12/16 00:43:23;;;;;;;22.17;10.88;;;;;;;;;;5030944;28;20083;-76
2020/12/16 00:45:48;;;;;;;17.77;10.03;;;;;;;;;;5030996;28;20095;-75
2020/12/16 00:48:14;;;;;;;22.00;11.88;;;;;;;;;;5030578;28;20272;-76
2020/12/16 00:50:39;;;;;;;21.45;11.88;;;;;;;;;;5030780;28;20029;-76
2020/12/16 00:53:04;;;;;;;23.30;12.80;;;;;;;;;;5028354;28;20473;-76
2020/12/16 00:55:29;;;;;;;22.73;13.60;;;;;;;;;;5030442;28;20265;-74
2020/12/16 00:57:55;;;;;;;24.15;13.55;;;;;;;;;;5030834;28;20577;-76
2020/12/16 01:00:20;;;;;;;25.85;12.35;;;;;;;;;;5030819;28;20477;-76
2020/12/16 01:02:48;;;;;;;19.83;12.65;;;;;;;;;;5030615;28;20025;-74
2020/12/16 01:05:14;;;;;;;20.92;12.88;;;;;;;;;;5030256;28;20029;-74
2020/12/16 01:07:40;;;;;;;26.42;11.25;;;;;;;;;;5030119;28;20025;-75
2020/12/16 01:10:06;;;;;;;25.85;12.48;;;;;;;;;;5024445;28;20048;-74
2020/12/16 01:12:35;;;;;;;19.65;11.05;;;;;;;;;;5028162;28;20503;-76
2020/12/16 01:15:00;;;;;;;21.92;11.93;;;;;;;;;;5030304;28;20080;-75
2020/12/16 01:17:26;;;;;;;18.80;10.35;;;;;;;;;;5029856;28;20029;-76
2020/12/16 01:19:51;;;;;;;19.95;10.45;;;;;;;;;;5030196;28;20076;-76
2020/12/16 01:22:16;;;;;;;18.83;10.48;;;;;;;;;;5029824;28;20064;-76
2020/12/16 01:24:41;;;;;;;24.57;11.67;;;;;;;;;;5026314;28;20484;-76
2020/12/16 01:27:06;;;;;;;20.37;11.57;;;;;;;;;;5030175;28;20314;-76
2020/12/16 01:29:31;;;;;;;23.83;12.35;;;;;;;;;;5012304;28;20851;-76
2020/12/16 01:31:57;;;;;;;27.88;13.48;;;;;;;;;;5029845;28;20025;-76
2020/12/16 01:34:22;;;;;;;25.13;11.73;;;;;;;;;;5030245;28;20017;-75
2020/12/16 01:36:48;;;;;;;24.27;11.18;;;;;;;;;;5029911;28;20060;-76
2020/12/16 01:39:14;;;;;;;17.60;10.90;;;;;;;;;;5029758;28;20382;-76
2020/12/16 01:41:40;;;;;;;21.60;11.52;;;;;;;;;;5027504;28;20030;-76
2020/12/16 01:44:12;;;;;;;23.20;11.85;;;;;;;;;;5030129;28;20480;-76
2020/12/16 01:46:44;;;;;;;23.55;12.38;;;;;;;;;;5030057;28;20044;-76
2020/12/16 01:49:10;;;;;;;24.27;12.80;;;;;;;;;;5060566;22;20124;-67
2020/12/16 01:51:35;;;;;;;21.30;11.98;;;;;;;;;;5036506;28;20520;-67
2020/12/16 01:54:00;;;;;;;20.80;11.43;;;;;;;;;;5038561;28;20066;-67
2020/12/16 01:56:27;;;;;;;20.73;11.13;;;;;;;;;;5040688;28;20024;-67
2020/12/16 01:58:53;;;;;;;20.25;11.30;;;;;;;;;;5053643;28;20031;-66
2020/12/16 02:01:21;;;;;;;22.13;11.55;;;;;;;;;;5052073;28;20013;-67
2020/12/16 02:03:46;;;;;;;18.88;11.23;;;;;;;;;;5052853;28;20388;-67
2020/12/16 02:06:13;;;;;;;22.73;12.82;;;;;;;;;;5065438;28;20009;-67
2020/12/16 02:08:38;;;;;;;20.08;12.02;;;;;;;;;;5063818;28;20017;-67
2020/12/16 02:11:04;;;;;;;22.88;11.75;;;;;;;;;;5066486;28;20073;-67
2020/12/16 02:13:29;;;;;;;22.10;11.73;;;;;;;;;;5065269;28;20029;-67
2020/12/16 02:15:54;;;;;;;22.25;12.00;;;;;;;;;;5066690;28;20025;-67
2020/12/16 02:18:19;;;;;;;23.20;12.27;;;;;;;;;;5059385;28;20029;-67
2020/12/16 02:20:44;;;;;;;23.60;12.93;;;;;;;;;;5057992;28;20267;-67
2020/12/16 02:23:14;;;;;;;23.23;12.10;;;;;;;;;;5070315;28;20476;-67
2020/12/16 02:25:39;;;;;;;25.27;12.45;;;;;;;;;;5061779;28;20104;-67
2020/12/16 02:28:07;;;;;;;22.65;12.15;;;;;;;;;;5063568;28;20115;-67
2020/12/16 02:30:32;;;;;;;26.73;12.98;;;;;;;;;;5068410;28;20021;-68
2020/12/16 02:32:57;;;;;;;21.40;11.97;;;;;;;;;;5071135;28;20061;-67
2020/12/16 02:35:22;;;;;;;24.98;12.82;;;;;;;;;;5055307;28;20739;-67
2020/12/16 02:37:48;;;;;;;20.60;11.07;;;;;;;;;;5071518;28;20029;-67
2020/12/16 02:40:13;;;;;;;27.95;12.18;;;;;;;;;;5055434;28;20063;-67
2020/12/16 02:42:38;;;;;;;20.57;11.90;;;;;;;;;;5061862;28;20110;-67
2020/12/16 02:45:04;;;;;;;21.10;11.50;;;;;;;;;;5064691;28;20267;-67
2020/12/16 02:47:29;;;;;;;20.33;11.57;;;;;;;;;;5065919;28;20346;-67
2020/12/16 02:49:54;;;;;;;22.83;12.43;;;;;;;;;;5061701;28;20417;-67
2020/12/16 02:52:19;;;;;;;17.73;11.23;;;;;;;;;;5055454;28;20274;-67
2020/12/16 02:54:45;;;;;;;25.40;12.25;;;;;;;;;;5064264;28;20079;-67
2020/12/16 02:57:10;;;;;;;30.88;11.98;;;;;;;;;;5062130;28;20013;-67
2020/12/16 02:59:35;;;;;;;25.23;11.55;;;;;;;;;;5058010;28;20417;-67
2020/12/16 03:02:00;;;;;;;21.93;12.17;;;;;;;;;;5063565;28;20164;-67
2020/12/16 03:04:26;;;;;;;21.35;10.80;;;;;;;;;;5059661;28;20270;-67
2020/12/16 03:06:52;;;;;;;23.52;11.82;;;;;;;;;;5057264;28;20020;-67
2020/12/16 03:09:18;;;;;;;23.40;13.77;;;;;;;;;;5071799;28;20058;-67
2020/12/16 03:11:44;;;;;;;25.10;12.93;;;;;;;;;;5057897;28;20021;-67
2020/12/16 03:14:09;;;;;;;25.88;13.30;;;;;;;;;;5067709;28;20019;-67
2020/12/16 03:16:34;;;;;;;24.70;12.75;;;;;;;;;;5069248;28;20087;-67
2020/12/16 03:19:00;;;;;;;29.67;13.43;;;;;;;;;;5061331;28;20029;-67
2020/12/16 03:21:25;;;;;;;26.85;13.63;;;;;;;;;;5066031;28;20469;-67
2020/12/16 03:23:51;;;;;;;26.90;13.13;;;;;;;;;;5068324;28;20036;-68
2020/12/16 03:26:16;;;;;;;25.92;13.88;;;;;;;;;;5056911;28;20013;-67
2020/12/16 03:28:41;;;;;;;25.27;13.77;;;;;;;;;;5035717;28;20033;-68
2020/12/16 03:31:06;;;;;;;29.17;13.40;;;;;;;;;;5064319;28;20020;-68
2020/12/16 03:33:32;;;;;;;24.95;13.10;;;;;;;;;;5043205;28;20059;-68
2020/12/16 03:35:57;;;;;;;24.15;12.80;;;;;;;;;;5060876;28;20028;-68
2020/12/16 03:38:22;;;;;;;25.00;14.17;;;;;;;;;;5063760;28;20060;-68
2020/12/16 03:40:47;;;;;;;31.03;14.17;;;;;;;;;;5059492;28;20271;-67
2020/12/16 03:43:12;;;;;;;29.83;14.53;;;;;;;;;;5064969;28;20323;-67
2020/12/16 03:45:37;;;;;;;33.07;15.37;;;;;;;;;;5052969;28;20264;-67
2020/12/16 03:48:03;;;;;;;26.48;13.70;;;;;;;;;;5063958;28;20263;-67
2020/12/16 03:50:28;;;;;;;29.95;14.57;;;;;;;;;;5058249;28;20362;-66
2020/12/16 03:52:53;;;;;;;28.13;12.57;;;;;;;;;;5062009;28;20033;-67
2020/12/16 03:55:18;;;;;;;30.83;13.47;;;;;;;;;;5052748;28;20522;-67
2020/12/16 03:57:43;;;;;;;27.42;13.15;;;;;;;;;;5052777;28;20267;-67
2020/12/16 04:00:10;;;;;;;30.63;14.73;;;;;;;;;;5052455;28;20412;-67
2020/12/16 04:02:36;;;;;;;30.58;14.93;;;;;;;;;;5062340;28;20028;-68
2020/12/16 04:05:01;;;;;;;32.47;14.38;;;;;;;;;;5060470;28;20020;-68
2020/12/16 04:07:27;;;;;;;33.95;14.60;;;;;;;;;;5059476;28;20499;-68
2020/12/16 04:09:53;;;;;;;33.22;14.57;;;;;;;;;;5059706;28;20048;-68
2020/12/16 04:12:18;;;;;;;28.90;14.13;;;;;;;;;;5054647;28;20024;-69
2020/12/16 04:14:43;;;;;;;32.25;15.55;;;;;;;;;;5062938;28;20267;-68
2020/12/16 04:17:08;;;;;;;35.20;17.02;;;;;;;;;;5052386;28;20750;-68
2020/12/16 04:19:33;;;;;;;27.67;14.37;;;;;;;;;;5053949;28;20032;-68
2020/12/16 04:21:59;;;;;;;30.23;14.50;;;;;;;;;;5069258;28;20312;-67
2020/12/16 04:24:24;;;;;;;32.20;15.83;;;;;;;;;;5062655;28;20283;-68
2020/12/16 04:26:50;;;;;;;24.55;13.25;;;;;;;;;;5052715;28;20313;-68
2020/12/16 04:29:15;;;;;;;27.55;13.60;;;;;;;;;;5058304;28;20021;-68
2020/12/16 04:31:41;;;;;;;33.15;15.90;;;;;;;;;;5064772;28;20073;-68
2020/12/16 04:34:06;;;;;;;32.33;15.48;;;;;;;;;;5056774;28;20036;-67
2020/12/16 04:36:31;;;;;;;36.53;15.98;;;;;;;;;;5070321;28;20428;-68
2020/12/16 04:38:56;;;;;;;33.83;16.10;;;;;;;;;;5053308;28;20059;-69
2020/12/16 04:41:21;;;;;;;43.45;17.88;;;;;;;;;;5061446;28;20290;-68
2020/12/16 04:43:48;;;;;;;34.30;17.17;;;;;;;;;;5065205;28;20384;-68
2020/12/16 04:46:17;;;;;;;42.45;16.35;;;;;;;;;;5057331;28;20270;-70
2020/12/16 04:48:44;;;;;;;36.53;16.10;;;;;;;;;;5056429;28;20111;-68
2020/12/16 04:51:10;;;;;;;35.67;15.73;;;;;;;;;;5064598;28;20017;-68
2020/12/16 04:53:36;;;;;;;44.00;17.27;;;;;;;;;;5056608;28;20023;-70
2020/12/16 04:56:01;;;;;;;36.13;17.05;;;;;;;;;;5060003;28;20112;-68
2020/12/16 04:58:26;;;;;;;34.60;15.88;;;;;;;;;;5055165;28;20083;-69
2020/12/16 05:00:51;;;;;;;40.20;17.33;;;;;;;;;;5062681;28;20028;-68
2020/12/16 05:03:16;;;;;;;41.03;17.63;;;;;;;;;;5055458;28;20291;-67
2020/12/16 05:05:41;;;;;;;35.05;16.52;;;;;;;;;;5061514;28;20265;-68
2020/12/16 05:08:11;;;;;;;36.35;16.77;;;;;;;;;;5060342;28;20016;-68
2020/12/16 05:10:37;;;;;;;39.55;16.63;;;;;;;;;;5056816;28;20509;-68
2020/12/16 05:13:05;;;;;;;33.88;15.75;;;;;;;;;;5061160;28;20020;-67
2020/12/16 05:15:31;;;;;;;36.22;15.75;;;;;;;;;;5058279;28;20020;-68
2020/12/16 05:18:10;;;;;;;36.63;15.80;;;;;;;;;;5059685;28;20107;-67
2020/12/16 05:20:35;;;;;;;29.27;14.85;;;;;;;;;;5055638;28;20024;-68
2020/12/16 05:23:02;;;;;;;29.42;14.75;;;;;;;;;;5053475;28;20021;-68
2020/12/16 05:25:27;;;;;;;39.80;17.25;;;;;;;;;;5064833;28;20014;-68
2020/12/16 05:27:53;;;;;;;48.90;18.58;;;;;;;;;;5067666;28;20023;-69
2020/12/16 05:30:18;;;;;;;39.75;17.30;;;;;;;;;;5065240;28;20397;-68
2020/12/16 05:32:43;;;;;;;34.72;16.48;;;;;;;;;;5053409;28;20029;-68
2020/12/16 05:35:27;;;;;;;41.03;17.27;;;;;;;;;;5058754;28;20503;-68
2020/12/16 05:38:02;;;;;;;38.22;17.67;;;;;;;;;;5053430;28;20013;-68
2020/12/16 05:40:29;;;;;;;36.72;16.00;;;;;;;;;;5057551;28;20491;-68
2020/12/16 05:42:54;;;;;;;35.63;15.18;;;;;;;;;;5054789;28;20112;-68
2020/12/16 05:45:20;;;;;;;36.78;15.65;;;;;;;;;;5060909;28;20095;-68
2020/12/16 05:48:21;;;;;;;38.60;15.95;;;;;;;;;;5062045;28;20013;-68
2020/12/16 05:50:46;;;;;;;;;;;;;;;;;;4979726;28;20076;-68
2020/12/16 05:53:11;;;;;;;33.95;14.90;;;;;;;;;;5048053;28;19948;-68
2020/12/16 05:55:36;;;;;;;33.20;15.18;;;;;;;;;;5056477;28;20407;-68
2020/12/16 05:58:06;;;;;;;31.55;15.98;;;;;;;;;;5058974;28;20048;-68
2020/12/16 06:00:40;;;;;;;36.83;16.55;;;;;;;;;;5053804;28;20066;-68
2020/12/16 06:03:05;;;;;;;34.70;15.57;;;;;;;;;;5058463;28;20021;-68
2020/12/16 06:05:31;;;;;;;37.80;16.52;;;;;;;;;;5053316;28;20380;-68
2020/12/16 06:07:57;;;;;;;39.92;16.63;;;;;;;;;;5051709;28;20426;-68
2020/12/16 06:10:26;;;;;;;37.80;16.02;;;;;;;;;;5057791;28;20021;-68
2020/12/16 06:12:51;;;;;;;34.65;14.55;;;;;;;;;;5066978;28;20033;-68
2020/12/16 06:15:16;;;;;;;38.78;16.88;;;;;;;;;;5064867;28;20122;-68
2020/12/16 06:17:43;;;;;;;37.05;17.23;;;;;;;;;;5061225;28;20075;-68
2020/12/16 06:20:11;;;;;;;42.40;18.25;;;;;;;;;;5062983;28;20529;-68
2020/12/16 06:22:36;;;;;;;34.50;15.82;;;;;;;;;;5062030;28;20028;-68
2020/12/16 06:25:02;;;;;;;36.38;16.58;;;;;;;;;;5056825;28;20127;-68
2020/12/16 06:27:32;;;;;;;35.58;15.93;;;;;;;;;;5058449;28;20090;-68
2020/12/16 06:29:58;;;;;;;42.08;17.80;;;;;;;;;;5055182;28;20070;-69
2020/12/16 06:32:35;;;;;;;37.85;16.83;;;;;;;;;;5056847;28;20042;-68
2020/12/16 06:35:01;;;;;;;42.35;17.60;;;;;;;;;;5056582;28;20464;-68
2020/12/16 06:37:27;;;;;;;33.90;14.85;;;;;;;;;;5059429;28;20039;-68
2020/12/16 06:39:52;;;;;;;36.13;15.37;;;;;;;;;;5063406;28;20029;-71
2020/12/16 06:42:32;;;;;;;21.95;11.65;;;;;;;;;;5063484;28;20283;-68
2020/12/16 06:45:14;;;;;;;30.48;13.48;;;;;;;;;;5055954;28;20017;-68
2020/12/16 06:47:39;;;;;;;29.02;11.93;;;;;;;;;;5059281;28;20028;-68
2020/12/16 06:50:17;;;;;;;28.35;13.18;;;;;;;;;;5063228;28;20102;-68
2020/12/16 06:52:42;;;;;;;31.08;14.43;;;;;;;;;;5066037;28;20033;-68
2020/12/16 06:55:08;;;;;;;31.00;13.88;;;;;;;;;;5056826;28;20032;-68
2020/12/16 06:57:44;;;;;;;27.60;14.10;;;;;;;;;;5069579;28;20089;-68
2020/12/16 07:00:15;;;;;;;26.95;13.45;;;;;;;;;;5056641;28;20544;-68
2020/12/16 07:02:40;;;;;;;34.90;13.95;;;;;;;;;;5068156;28;20024;-69
2020/12/16 07:05:25;;;;;;;33.92;15.13;;;;;;;;;;5062896;28;20496;-68
2020/12/16 07:07:57;;;;;;;30.45;13.73;;;;;;;;;;5056166;28;20021;-68
2020/12/16 07:10:34;;;;;;;31.90;15.43;;;;;;;;;;5058524;28;20600;-69
2020/12/16 07:13:09;;;;;;;36.65;15.77;;;;;;;;;;5068843;28;20099;-68
2020/12/16 07:15:45;;;;;;;43.63;17.45;;;;;;;;;;5053474;28;20412;-70
2020/12/16 07:18:29;;;;;;;44.83;16.52;;;;;;;;;;5060044;28;20380;-68
2020/12/16 07:20:58;;;;;;;42.35;17.58;;;;;;;;;;5054682;28;20028;-68
2020/12/16 07:23:27;;;;;;;41.22;17.27;;;;;;;;;;5067958;28;20020;-68
2020/12/16 07:26:00;;;;;;;43.92;17.33;;;;;;;;;;5061817;28;20024;-68
2020/12/16 07:28:26;;;;;;;41.05;17.45;;;;;;;;;;5067124;28;20025;-69
2020/12/16 07:30:51;;;;;;;33.17;14.60;;;;;;;;;;5055340;28;20024;-68
2020/12/16 07:33:17;;;;;;;36.53;15.30;;;;;;;;;;5063626;28;20055;-68
2020/12/16 07:35:44;;;;;;;34.72;15.80;;;;;;;;;;5061520;28;20334;-67
2020/12/16 07:38:11;;;;;;;36.40;15.73;;;;;;;;;;5063382;28;20445;-67
2020/12/16 07:40:36;;;;;;;34.50;16.00;;;;;;;;;;5066964;28;20016;-67
2020/12/16 07:43:02;;;;;;;25.70;12.97;;;;;;;;;;5062418;28;20535;-67
2020/12/16 07:45:27;;;;;;;36.28;16.25;;;;;;;;;;5066612;28;20889;-67
2020/12/16 07:47:53;;;;;;;28.50;13.40;;;;;;;;;;5066621;28;20054;-68
2020/12/16 07:50:18;;;;;;;30.65;14.40;;;;;;;;;;5066206;28;20259;-69
2020/12/16 07:52:50;;;;;;;33.08;13.60;;;;;;;;;;5053476;28;20029;-68
2020/12/16 07:55:21;;;;;;;28.98;13.25;;;;;;;;;;5052893;28;20021;-68
2020/12/16 07:57:46;;;;;;;27.27;11.85;;;;;;;;;;5059239;28;20428;-68
2020/12/16 08:00:11;;;;;;;24.30;11.93;;;;;;;;;;5057445;28;20020;-68
2020/12/16 08:02:38;;;;;;;25.65;12.18;;;;;;;;;;5061437;28;20028;-68
2020/12/16 08:05:03;;;;;;;26.63;13.23;;;;;;;;;;5054722;28;20016;-68
2020/12/16 08:07:29;;;;;;;22.75;11.90;;;;;;;;;;5060496;28;20017;-69
2020/12/16 08:09:54;;;;;;;22.23;11.90;;;;;;;;;;5061303;28;20051;-68
2020/12/16 08:12:20;;;;;;;26.92;12.40;;;;;;;;;;5058928;28;20017;-67
2020/12/16 08:14:45;;;;;;;20.02;10.93;;;;;;;;;;5060066;28;20052;-67
2020/12/16 08:17:11;;;;;;;21.55;10.98;;;;;;;;;;5062741;28;20056;-67
2020/12/16 08:19:36;;;;;;;27.60;11.82;;;;;;;;;;5061845;28;20021;-67
2020/12/16 08:22:11;;;;;;;21.80;11.52;;;;;;;;;;5065758;28;20016;-67
2020/12/16 08:24:37;;;;;;;21.90;10.55;;;;;;;;;;5064034;28;20025;-67
2020/12/16 08:27:02;;;;;;;20.93;11.30;;;;;;;;;;5054327;28;20461;-67
2020/12/16 08:29:28;;;;;;;23.05;10.25;;;;;;;;;;5039417;28;20376;-67
2020/12/16 08:31:54;;;;;;;30.42;10.70;;;;;;;;;;5057711;28;20029;-67
2020/12/16 08:34:19;;;;;;;37.65;11.18;;;;;;;;;;5054962;28;20039;-65
2020/12/16 08:36:45;;;;;;;26.40;9.68;;;;;;;;;;5065025;28;20027;-67
2020/12/16 08:39:10;;;;;;;21.50;9.30;;;;;;;;;;5052151;28;20017;-67
2020/12/16 08:41:43;;;;;;;17.95;9.55;;;;;;;;;;5060584;28;20021;-67
2020/12/16 08:44:08;;;;;;;16.52;9.48;;;;;;;;;;5063396;28;20381;-65
2020/12/16 08:46:38;;;;;;;21.65;10.15;;;;;;;;;;5054752;28;20021;-68
2020/12/16 08:49:03;;;;;;;20.00;9.13;;;;;;;;;;5058264;28;20056;-68
2020/12/16 08:51:29;;;;;;;17.98;10.02;;;;;;;;;;5064419;28;20059;-68
2020/12/16 08:53:55;;;;;;;16.25;9.35;;;;;;;;;;5058944;28;20025;-68
2020/12/16 08:56:23;;;;;;;16.63;7.97;;;;;;;;;;5047180;28;20692;-67
2020/12/16 08:58:59;;;;;;;14.90;8.18;;;;;;;;;;5068223;28;20025;-67
2020/12/16 09:01:24;;;;;;;16.83;9.00;;;;;;;;;;5057296;28;20027;-68
2020/12/16 09:03:51;;;;;;;17.20;8.90;;;;;;;;;;5055408;28;20579;-67
2020/12/16 09:06:16;;;;;;;13.60;7.07;;;;;;;;;;5058862;28;20037;-68
2020/12/16 09:08:42;;;;;;;15.30;7.85;;;;;;;;;;5065478;28;20031;-68
2020/12/16 09:11:07;;;;;;;15.80;9.60;;;;;;;;;;5053153;28;20270;-67
2020/12/16 09:13:32;;;;;;;15.75;8.95;;;;;;;;;;5054493;28;20676;-68
2020/12/16 09:15:57;;;;;;;15.23;8.90;;;;;;;;;;5057026;28;20094;-67
2020/12/16 09:18:27;;;;;;;15.70;9.10;;;;;;;;;;5039762;28;20311;-66
2020/12/16 09:20:52;;;;;;;12.90;7.07;;;;;;;;;;5057518;28;20052;-68
2020/12/16 09:23:24;;;;;;;17.55;9.00;;;;;;;;;;5058262;28;20071;-67
2020/12/16 09:25:51;;;;;;;16.83;8.70;;;;;;;;;;5054879;28;20489;-67
2020/12/16 09:28:17;;;;;;;13.93;8.13;;;;;;;;;;5060431;28;20029;-68
2020/12/16 09:30:42;;;;;;;9.73;5.72;;;;;;;;;;5056393;28;20471;-68
2020/12/16 09:33:14;;;;;;;16.47;9.17;;;;;;;;;;5060481;28;20449;-68
2020/12/16 09:35:40;;;;;;;20.60;11.32;;;;;;;;;;5048219;28;20266;-66
2020/12/16 09:38:12;;;;;;;13.25;7.68;;;;;;;;;;5058032;28;20028;-68
2020/12/16 09:40:38;;;;;;;10.35;5.00;;;;;;;;;;5070546;28;20048;-68
2020/12/16 09:43:04;;;;;;;12.30;6.77;;;;;;;;;;5066207;28;20075;-68
2020/12/16 09:45:30;;;;;;;11.52;6.25;;;;;;;;;;5062340;28;20262;-68
2020/12/16 09:47:55;;;;;;;11.90;7.70;;;;;;;;;;5066761;28;20031;-68
2020/12/16 09:50:27;;;;;;;15.93;7.38;;;;;;;;;;5069528;28;20029;-65
2020/12/16 09:52:56;;;;;;;10.80;5.32;;;;;;;;;;5070289;28;20012;-66
2020/12/16 09:55:22;;;;;;;8.88;4.30;;;;;;;;;;5070030;28;20039;-68
2020/12/16 09:57:57;;;;;;;12.93;6.93;;;;;;;;;;5070781;28;20013;-66
2020/12/16 10:00:22;;;;;;;8.05;4.40;;;;;;;;;;5069090;28;20028;-66
2020/12/16 10:02:47;;;;;;;11.52;6.05;;;;;;;;;;5070557;28;20036;-66
2020/12/16 10:05:12;;;;;;;12.40;7.80;;;;;;;;;;5070396;28;20377;-68
2020/12/16 10:07:38;;;;;;;11.73;7.60;;;;;;;;;;5052601;28;20051;-67
2020/12/16 10:10:03;;;;;;;13.30;8.30;;;;;;;;;;5070150;28;20255;-67
2020/12/16 10:12:28;;;;;;;15.52;6.75;;;;;;;;;;5070315;28;20824;-67
2020/12/16 10:14:53;;;;;;;9.25;5.20;;;;;;;;;;5070057;28;20059;-66
2020/12/16 10:17:19;;;;;;;14.38;7.18;;;;;;;;;;5069081;28;20096;-67
2020/12/16 10:19:44;;;;;;;14.50;7.55;;;;;;;;;;5066672;28;20472;-67
2020/12/16 10:22:10;;;;;;;12.40;7.47;;;;;;;;;;5070633;28;20130;-67
2020/12/16 10:24:35;;;;;;;11.82;7.68;;;;;;;;;;5070645;28;20277;-66
2020/12/16 10:27:02;;;;;;;10.83;5.83;;;;;;;;;;5070710;28;20024;-67
2020/12/16 10:29:27;;;;;;;8.43;5.47;;;;;;;;;;5073205;28;20344;-68
2020/12/16 10:31:52;;;;;;;8.77;4.90;;;;;;;;;;5074437;28;20064;-67
2020/12/16 10:34:19;;;;;;;8.00;5.18;;;;;;;;;;5074344;28;20025;-67
2020/12/16 10:36:48;;;;;;;8.90;4.10;;;;;;;;;;5074013;28;20036;-67
2020/12/16 10:39:13;;;;;;;8.73;5.00;;;;;;;;;;5073668;28;20021;-68
2020/12/16 10:41:38;;;;;;;6.73;3.73;;;;;;;;;;5073866;28;20039;-67
2020/12/16 10:44:03;;;;;;;7.77;4.80;;;;;;;;;;5048272;28;20318;-67
2020/12/16 10:46:28;;;;;;;7.83;5.03;;;;;;;;;;5066977;28;20739;-67
2020/12/16 10:48:54;;;;;;;6.23;3.67;;;;;;;;;;5073136;28;20263;-67
2020/12/16 10:51:19;;;;;;;7.70;4.10;;;;;;;;;;5073505;28;20290;-67
2020/12/16 10:53:44;;;;;;;7.28;4.13;;;;;;;;;;5073518;28;20286;-67
2020/12/16 10:56:09;;;;;;;5.38;2.85;;;;;;;;;;5073608;28;20020;-67
2020/12/16 10:58:34;;;;;;;7.18;3.45;;;;;;;;;;5065113;28;20025;-67
2020/12/16 11:01:00;;;;;;;6.97;3.13;;;;;;;;;;5062696;28;20029;-67
2020/12/16 11:03:25;;;;;;;6.95;4.18;;;;;;;;;;5061968;28;20314;-67
2020/12/16 11:05:50;;;;;;;7.43;4.23;;;;;;;;;;5060783;28;20749;-68
2020/12/16 11:08:15;;;;;;;8.20;4.97;;;;;;;;;;5061762;28;20300;-67
2020/12/16 11:10:47;;;;;;;6.65;4.03;;;;;;;;;;5062076;28;20282;-67
2020/12/16 11:13:12;;;;;;;10.50;4.80;;;;;;;;;;5056636;28;20039;-67
2020/12/16 11:15:37;;;;;;;6.25;3.50;;;;;;;;;;5064280;28;20020;-67
2020/12/16 11:18:03;;;;;;;7.75;3.80;;;;;;;;;;5060949;28;20272;-67
2020/12/16 11:20:28;;;;;;;7.50;3.63;;;;;;;;;;5060800;28;20283;-67
2020/12/16 11:22:53;;;;;;;7.88;4.03;;;;;;;;;;5061554;28;20282;-68
2020/12/16 11:25:18;;;;;;;7.10;3.60;;;;;;;;;;5059573;28;20016;-67
2020/12/16 11:27:43;;;;;;;4.70;2.80;;;;;;;;;;5068839;28;20270;-68
2020/12/16 11:30:08;;;;;;;6.30;3.85;;;;;;;;;;5064951;28;20344;-68
2020/12/16 11:32:34;;;;;;;8.33;4.43;;;;;;;;;;5062312;28;20020;-68
2020/12/16 11:34:59;;;;;;;10.87;5.57;;;;;;;;;;5059739;28;20259;-68
2020/12/16 11:37:24;;;;;;;7.38;3.55;;;;;;;;;;5058674;28;20370;-69
2020/12/16 11:39:53;;;;;;;9.43;5.87;;;;;;;;;;5055101;28;20021;-67
2020/12/16 11:42:18;;;;;;;5.15;3.35;;;;;;;;;;5065071;28;20309;-68
2020/12/16 11:44:43;;;;;;;5.40;2.77;;;;;;;;;;5065937;28;20033;-68
2020/12/16 11:47:11;;;;;;;7.87;4.67;;;;;;;;;;5061778;28;20314;-68
2020/12/16 11:49:36;;;;;;;14.45;5.15;;;;;;;;;;5064433;28;20770;-68
2020/12/16 11:52:01;;;;;;;8.00;4.37;;;;;;;;;;5069331;28;20024;-68
2020/12/16 11:54:26;;;;;;;7.68;3.80;;;;;;;;;;5065102;28;20350;-67
2020/12/16 11:56:51;;;;;;;6.43;4.43;;;;;;;;;;5065768;28;20020;-68
2020/12/16 11:59:17;;;;;;;9.18;5.18;;;;;;;;;;5062865;28;20346;-67
2020/12/16 12:01:42;;;;;;;8.50;4.53;;;;;;;;;;5063298;28;20786;-68
2020/12/16 12:04:08;;;;;;;5.93;3.92;;;;;;;;;;5061004;28;20279;-68
2020/12/16 12:06:33;;;;;;;8.70;5.35;;;;;;;;;;5060759;28;20013;-68
2020/12/16 12:08:58;;;;;;;9.07;4.57;;;;;;;;;;5060743;28;20031;-68
2020/12/16 12:11:23;;;;;;;8.55;5.30;;;;;;;;;;5061066;28;20260;-67
2020/12/16 12:13:48;;;;;;;8.23;4.80;;;;;;;;;;5060645;28;20033;-68
2020/12/16 12:16:14;;;;;;;10.37;5.97;;;;;;;;;;5057436;28;20263;-68
2020/12/16 12:18:41;;;;;;;8.68;4.60;;;;;;;;;;5060497;28;20267;-68
2020/12/16 12:21:07;;;;;;;10.77;5.72;;;;;;;;;;5058913;28;20040;-68
2020/12/16 12:23:33;;;;;;;12.95;6.20;;;;;;;;;;5057063;28;20025;-68
2020/12/16 12:25:58;;;;;;;10.18;5.68;;;;;;;;;;5052222;28;20048;-68
2020/12/16 12:28:23;;;;;;;7.90;3.92;;;;;;;;;;5061748;28;20051;-68
2020/12/16 12:30:48;;;;;;;8.80;5.70;;;;;;;;;;5057515;28;20091;-67
2020/12/16 12:33:14;;;;;;;16.42;5.97;;;;;;;;;;5063233;28;20029;-67
2020/12/16 12:35:39;;;;;;;6.13;2.95;;;;;;;;;;5061551;28;20067;-68
2020/12/16 12:38:04;;;;;;;9.07;4.80;;;;;;;;;;5055523;28;20017;-68
2020/12/16 12:40:29;;;;;;;6.40;4.40;;;;;;;;;;5055720;28;20021;-68
2020/12/16 12:42:55;;;;;;;13.13;3.83;;;;;;;;;;5055494;28;20021;-68
2020/12/16 12:45:20;;;;;;;6.43;3.25;;;;;;;;;;5055249;28;20389;-68
2020/12/16 12:47:45;;;;;;;6.85;3.72;;;;;;;;;;5060171;28;20017;-68
2020/12/16 12:50:10;;;;;;;4.90;2.63;;;;;;;;;;5063221;28;20026;-68
2020/12/16 12:52:35;;;;;;;14.07;4.07;;;;;;;;;;5057898;28;20613;-68
2020/12/16 12:55:01;;;;;;;8.05;4.53;;;;;;;;;;5062368;28;20035;-68
2020/12/16 12:57:26;;;;;;;8.32;4.55;;;;;;;;;;5062555;28;20028;-68
2020/12/16 12:59:51;;;;;;;9.03;4.50;;;;;;;;;;5060581;28;20021;-68
2020/12/16 13:02:16;;;;;;;11.30;5.53;;;;;;;;;;5065038;28;20270;-68
2020/12/16 13:04:42;;;;;;;9.50;5.95;;;;;;;;;;5063692;28;20032;-68
2020/12/16 13:07:07;;;;;;;12.10;4.63;;;;;;;;;;5053905;28;20020;-68
2020/12/16 13:09:32;;;;;;;5.00;2.92;;;;;;;;;;5058133;28;20521;-67
2020/12/16 13:11:57;;;;;;;5.07;3.10;;;;;;;;;;5063621;28;20020;-68
2020/12/16 13:14:23;;;;;;;5.47;2.90;;;;;;;;;;5060656;28;20135;-68
2020/12/16 13:16:48;;;;;;;9.63;5.83;;;;;;;;;;5062129;28;20261;-67
2020/12/16 13:19:16;;;;;;;9.73;4.53;;;;;;;;;;5059985;28;20358;-67
2020/12/16 13:21:41;;;;;;;10.57;6.07;;;;;;;;;;5058692;28;20259;-68
2020/12/16 13:24:07;;;;;;;8.50;3.72;;;;;;;;;;5051016;28;20111;-67
2020/12/16 13:26:32;;;;;;;9.40;5.40;;;;;;;;;;5051744;28;20100;-67
2020/12/16 13:28:57;;;;;;;8.43;5.27;;;;;;;;;;5054407;28;20326;-68
2020/12/16 13:31:22;;;;;;;4.83;3.00;;;;;;;;;;5061098;28;20374;-67
2020/12/16 13:33:47;;;;;;;7.23;4.57;;;;;;;;;;5065636;28;20274;-67
2020/12/16 13:36:12;;;;;;;8.17;5.73;;;;;;;;;;5064635;28;20307;-67
2020/12/16 13:38:38;;;;;;;7.88;3.88;;;;;;;;;;5058013;28;20264;-67
2020/12/16 13:41:04;;;;;;;5.43;2.80;;;;;;;;;;5058212;28;20025;-67
2020/12/16 13:43:29;;;;;;;9.30;5.75;;;;;;;;;;5070407;28;20290;-67
2020/12/16 13:45:54;;;;;;;9.00;5.53;;;;;;;;;;5070733;28;20498;-68
2020/12/16 13:48:20;;;;;;;10.52;5.07;;;;;;;;;;5083029;22;20247;-67
2020/12/16 13:50:45;;;;;;;7.40;4.20;;;;;;;;;;5031051;28;20041;-68
2020/12/16 13:53:10;;;;;;;6.80;3.50;;;;;;;;;;5030724;28;20022;-67
2020/12/16 13:55:35;;;;;;;7.22;5.13;;;;;;;;;;5029593;28;20308;-66
2020/12/16 13:58:00;;;;;;;7.35;4.68;;;;;;;;;;5030623;28;20021;-67
2020/12/16 14:00:26;;;;;;;7.72;3.90;;;;;;;;;;5019886;28;20026;-67
2020/12/16 14:02:51;;;;;;;8.48;5.00;;;;;;;;;;4992995;28;20022;-67
2020/12/16 14:05:16;;;;;;;8.93;4.20;;;;;;;;;;5010496;28;20022;-67
2020/12/16 14:07:42;;;;;;;5.90;3.47;;;;;;;;;;5010140;28;20334;-67
2020/12/16 14:10:07;;;;;;;6.32;4.05;;;;;;;;;;5009739;28;20030;-68
2020/12/16 14:12:34;;;;;;;6.93;4.47;;;;;;;;;;5025343;28;20497;-67
2020/12/16 14:14:59;;;;;;;9.55;4.32;;;;;;;;;;5009423;28;20029;-67
2020/12/16 14:17:24;;;;;;;8.77;5.13;;;;;;;;;;5010053;28;20022;-66
2020/12/16 14:19:49;;;;;;;5.77;3.40;;;;;;;;;;5009583;28;20836;-68
2020/12/16 14:22:14;;;;;;;9.90;4.57;;;;;;;;;;5010098;28;20260;-67